createdAt,value
2023-02-11T00:02:13.236Z,50.17
2023-02-11T00:07:14.896Z,47.47
2023-02-11T00:12:19.486Z,51.17
2023-02-11T00:17:21.510Z,54.03
2023-02-11T00:22:23.565Z,61.63
2023-02-11T00:27:25.231Z,54.67
2023-02-11T00:32:26.905Z,63.95
2023-02-11T00:37:29.157Z,60.40
2023-02-11T00:47:32.620Z,55.35
2023-02-11T00:52:34.931Z,60.90
2023-02-11T00:57:37.616Z,58.88
2023-02-11T01:02:39.663Z,56.58
2023-02-11T01:07:41.324Z,56.17
2023-02-11T01:12:43.054Z,55.63
2023-02-11T01:17:45.381Z,56.35
2023-02-11T01:22:47.139Z,61.30
2023-02-11T01:27:50.491Z,56.80
2023-02-11T01:32:52.190Z,63.85
2023-02-11T01:37:53.930Z,56.47
2023-02-11T01:42:55.544Z,57.07
2023-02-11T01:47:57.247Z,57.17
2023-02-11T01:53:18.931Z,59.40
2023-02-11T01:58:21.705Z,59.53
2023-02-11T02:03:24.724Z,59.92
2023-02-11T02:08:29.531Z,56.95
2023-02-11T02:13:33.772Z,55.92
2023-02-11T02:18:59.858Z,55.33
2023-02-11T02:24:26.369Z,55.58
2023-02-11T02:29:46.704Z,54.15
2023-02-11T02:35:04.167Z,60.75
2023-02-11T02:40:12.897Z,57.42
2023-02-11T02:45:14.852Z,61.08
2023-02-11T02:50:19.649Z,58.90
2023-02-11T02:55:54.795Z,61.03
2023-02-11T03:01:21.270Z,58.13
2023-02-11T03:06:45.910Z,57.80
2023-02-11T03:11:47.653Z,55.30
2023-02-11T03:16:51.776Z,59.72
2023-02-11T03:21:55.225Z,59.17
2023-02-11T03:27:01.528Z,60.35
2023-02-11T03:32:31.100Z,53.83
2023-02-11T03:37:40.127Z,63.58
2023-02-11T03:42:46.418Z,53.60
2023-02-11T03:47:56.755Z,57.65
2023-02-11T03:53:00.546Z,62.85
2023-02-11T03:58:02.225Z,59.13
2023-02-11T04:03:04.622Z,61.53
2023-02-11T04:13:08.184Z,63.83
2023-02-11T04:18:09.923Z,62.30
2023-02-11T04:23:11.571Z,61.30
2023-02-11T04:28:13.268Z,60.97
2023-02-11T04:33:14.923Z,62.20
2023-02-11T04:38:17.047Z,70.07
2023-02-11T04:43:18.825Z,58.15
2023-02-11T04:48:20.604Z,64.10
2023-02-11T04:53:22.231Z,69.70
2023-02-11T04:58:24.374Z,64.20
2023-02-11T05:03:26.104Z,68.28
2023-02-11T05:08:28.175Z,66.90
2023-02-11T05:13:30.286Z,64.65
2023-02-11T05:18:31.925Z,68.60
2023-02-11T05:23:34.288Z,66.28
2023-02-11T05:28:37.750Z,70.07
2023-02-11T05:33:39.446Z,61.58
2023-02-11T05:38:42.550Z,62.70
2023-02-11T05:43:44.185Z,67.20
2023-02-11T05:48:45.834Z,71.40
2023-02-11T05:53:47.507Z,62.90
2023-02-11T05:58:49.195Z,61.43
2023-02-11T06:03:51.356Z,61.28
2023-02-11T06:08:53.124Z,66.15
2023-02-11T06:13:54.905Z,68.03
2023-02-11T06:18:56.555Z,58.53
2023-02-11T06:23:58.331Z,59.30
2023-02-11T06:29:01.301Z,62.90
2023-02-11T06:34:03.263Z,62.47
2023-02-11T06:39:05.143Z,62.03
2023-02-11T06:44:07.287Z,67.63
2023-02-11T06:49:09.076Z,70.63
2023-02-11T06:54:12.104Z,58.67
2023-02-11T06:59:18.563Z,64.70
2023-02-11T07:04:20.321Z,64.38
2023-02-11T07:09:21.972Z,65.10
2023-02-11T07:14:23.799Z,65.15
2023-02-11T07:19:25.487Z,61.25
2023-02-11T07:24:27.709Z,57.60
2023-02-11T07:29:29.399Z,61.97
2023-02-11T07:34:31.358Z,66.75
2023-02-11T07:39:33.127Z,69.67
2023-02-11T07:44:35.097Z,46.77
2023-02-11T07:49:36.795Z,51.67
2023-02-11T07:54:38.427Z,60.43
2023-02-11T07:59:40.131Z,60.78
2023-02-11T08:04:41.807Z,60.60
2023-02-11T08:09:43.551Z,63.88
2023-02-11T08:14:45.416Z,59.08
2023-02-11T08:19:47.130Z,54.47
2023-02-11T08:24:52.262Z,55.37
2023-02-11T08:29:54.870Z,55.65
2023-02-11T08:34:56.956Z,58.92
2023-02-11T08:39:58.675Z,64.53
2023-02-11T08:45:00.383Z,60.43
2023-02-11T08:50:02.042Z,60.50
2023-02-11T08:55:04.349Z,51.90
2023-02-11T09:00:06.822Z,53.35
2023-02-11T09:05:09.118Z,52.67
2023-02-11T09:10:11.798Z,46.90
2023-02-11T09:15:13.607Z,45.53
2023-02-11T09:20:15.370Z,49.60
2023-02-11T09:25:17.002Z,43.77
2023-02-11T09:30:18.759Z,49.05
2023-02-11T09:35:20.424Z,45.73
2023-02-11T09:40:23.229Z,44.35
2023-02-11T09:45:28.464Z,37.03
2023-02-11T09:50:34.297Z,35.47
2023-02-11T09:55:42.871Z,37.85
2023-02-11T10:00:48.938Z,36.83
2023-02-11T10:06:10.716Z,33.53
2023-02-11T10:11:31.529Z,34.80
2023-02-11T10:16:48.279Z,35.15
2023-02-11T10:22:23.103Z,34.08
2023-02-11T10:27:30.656Z,32.03
2023-02-11T10:32:39.224Z,32.92
2023-02-11T10:37:43.565Z,31.92
2023-02-11T10:42:51.235Z,30.85
2023-02-11T10:47:55.212Z,33.58
2023-02-11T10:53:12.317Z,33.38
2023-02-11T10:58:24.060Z,37.05
2023-02-11T11:03:33.976Z,32.95
2023-02-11T11:08:47.833Z,33.47
2023-02-11T11:13:52.766Z,28.85
2023-02-11T11:19:22.217Z,28.15
2023-02-11T11:24:37.461Z,28.50
2023-02-11T11:29:51.221Z,32.15
2023-02-11T11:34:55.788Z,33.53
2023-02-11T11:40:00.523Z,36.17
2023-02-11T11:45:24.750Z,27.10
2023-02-11T11:50:35.594Z,29.80
2023-02-11T11:55:59.852Z,32.38
2023-02-11T12:01:04.417Z,23.48
2023-02-11T12:06:24.439Z,22.40
2023-02-11T12:11:52.803Z,24.38
2023-02-11T12:17:22.397Z,25.98
2023-02-11T12:22:51.514Z,24.35
2023-02-11T12:28:16.797Z,21.23
2023-02-11T12:33:57.670Z,23.60
2023-02-11T12:39:06.501Z,26.83
2023-02-11T12:44:23.763Z,21.58
2023-02-11T12:49:38.630Z,22.45
2023-02-11T12:54:47.772Z,22.98
2023-02-11T12:59:59.191Z,22.58
2023-02-11T13:05:15.872Z,20.95
2023-02-11T13:10:34.603Z,20.75
2023-02-11T13:15:37.060Z,22.30
2023-02-11T13:20:50.886Z,23.23
2023-02-11T13:26:10.487Z,21.38
2023-02-11T13:31:13.563Z,21.45
2023-02-11T13:36:27.596Z,23.65
2023-02-11T13:41:41.818Z,24.20
2023-02-11T13:46:53.077Z,24.75
2023-02-11T13:51:55.755Z,24.98
2023-02-11T13:57:19.635Z,24.80
2023-02-11T14:02:55.151Z,24.77
2023-02-11T14:08:30.947Z,25.98
2023-02-11T14:13:34.565Z,25.23
2023-02-11T14:18:39.045Z,27.98
2023-02-11T14:23:41.659Z,26.33
2023-02-11T14:28:46.765Z,24.85
2023-02-11T14:34:12.449Z,26.30
2023-02-11T14:39:47.046Z,29.75
2023-02-11T14:44:52.223Z,24.73
2023-02-11T14:49:54.278Z,23.17
2023-02-11T14:55:14.820Z,24.47
2023-02-11T15:00:22.104Z,26.83
2023-02-11T15:05:31.382Z,25.65
2023-02-11T15:10:37.884Z,25.77
2023-02-11T15:15:40.681Z,26.23
2023-02-11T15:25:51.079Z,24.35
2023-02-11T15:31:14.100Z,23.40
2023-02-11T15:41:38.370Z,27.00
2023-02-11T15:46:40.896Z,28.05
2023-02-11T15:51:45.881Z,26.73
2023-02-11T15:56:52.762Z,24.20
2023-02-11T16:01:55.423Z,27.13
2023-02-11T16:06:57.478Z,33.60
2023-02-11T16:12:07.485Z,35.40
2023-02-11T16:17:12.625Z,26.10
2023-02-11T16:22:18.859Z,28.95
2023-02-11T16:27:25.701Z,28.15
2023-02-11T16:32:29.664Z,28.83
2023-02-11T16:37:32.261Z,30.42
2023-02-11T16:42:34.123Z,26.52
2023-02-11T16:47:40.819Z,30.02
2023-02-11T16:52:43.140Z,23.55
2023-02-11T16:57:44.848Z,31.10
2023-02-11T17:02:46.613Z,25.83
2023-02-11T17:07:49.145Z,25.30
2023-02-11T17:12:51.371Z,30.38
2023-02-11T17:17:53.122Z,30.23
2023-02-11T17:22:54.870Z,29.20
2023-02-11T17:27:56.722Z,29.05
2023-02-11T17:32:58.478Z,30.00
2023-02-11T17:38:01.367Z,28.80
2023-02-11T17:43:03.312Z,32.00
2023-02-11T17:48:05.096Z,32.00
2023-02-11T17:53:06.739Z,30.67
2023-02-11T17:58:08.739Z,29.98
2023-02-11T18:03:10.358Z,27.83
2023-02-11T18:08:12.113Z,28.80
2023-02-11T18:13:14.006Z,27.77
2023-02-11T18:18:16.308Z,23.03
2023-02-11T18:23:18.031Z,19.80
2023-02-11T18:28:19.842Z,21.02
2023-02-11T18:33:21.559Z,19.38
2023-02-11T18:38:24.191Z,19.45
2023-02-11T18:43:26.000Z,23.50
2023-02-11T18:48:28.221Z,25.25
2023-02-11T18:53:30.176Z,19.02
2023-02-11T18:58:32.188Z,27.58
2023-02-11T19:03:34.010Z,37.95
2023-02-11T19:08:35.868Z,38.10
2023-02-11T19:13:38.288Z,38.65
2023-02-11T19:18:40.182Z,36.55
2023-02-11T19:23:41.859Z,26.50
2023-02-11T19:28:44.677Z,27.58
2023-02-11T19:33:47.655Z,41.97
2023-02-11T19:38:49.765Z,25.92
2023-02-11T19:43:52.919Z,25.60
2023-02-11T19:48:54.884Z,21.10
2023-02-11T19:53:58.001Z,18.20
2023-02-11T19:59:03.505Z,22.08
2023-02-11T20:04:06.769Z,25.63
2023-02-11T20:09:14.100Z,23.58
2023-02-11T20:14:16.045Z,29.52
2023-02-11T20:19:21.247Z,31.38
2023-02-11T20:24:25.606Z,22.35
2023-02-11T20:29:29.570Z,19.25
2023-02-11T20:34:31.362Z,21.40
2023-02-11T20:39:33.328Z,25.50
2023-02-11T20:44:36.677Z,23.83
2023-02-11T20:49:38.390Z,24.33
2023-02-11T20:54:40.268Z,25.15
2023-02-11T20:59:42.657Z,26.13
2023-02-11T21:04:44.350Z,32.55
2023-02-11T21:09:46.080Z,31.65
2023-02-11T21:14:47.716Z,35.88
2023-02-11T21:19:49.561Z,31.55
2023-02-11T21:24:51.330Z,24.40
2023-02-11T21:29:54.798Z,31.98
2023-02-11T21:34:56.669Z,36.83
2023-02-11T21:39:58.384Z,41.95
2023-02-11T21:45:00.267Z,35.40
2023-02-11T21:50:01.858Z,29.48
2023-02-11T21:55:03.756Z,29.92
2023-02-11T22:00:07.686Z,28.47
2023-02-11T22:05:10.546Z,29.65
2023-02-11T22:10:12.868Z,32.42
2023-02-11T22:15:14.944Z,40.97
2023-02-11T22:20:17.494Z,31.48
2023-02-11T22:25:19.336Z,29.38
2023-02-11T22:30:21.046Z,30.52
2023-02-11T22:35:22.780Z,33.30
2023-02-11T22:40:24.989Z,28.30
2023-02-11T22:45:26.936Z,24.90
2023-02-11T22:50:28.697Z,26.58
2023-02-11T22:55:30.615Z,30.70
2023-02-11T23:00:37.962Z,25.40
2023-02-11T23:05:42.867Z,29.17
2023-02-11T23:10:44.610Z,24.10
2023-02-11T23:15:47.151Z,25.27
2023-02-11T23:20:48.900Z,27.13
2023-02-11T23:25:50.588Z,31.85
2023-02-11T23:30:52.403Z,29.92
2023-02-11T23:35:54.369Z,34.37
2023-02-11T23:40:56.208Z,32.15
2023-02-11T23:45:58.354Z,29.00
2023-02-11T23:51:00.116Z,28.48
2023-02-11T23:56:07.413Z,31.17
